Time;durP1;ratioP1;P1;durP2;ratioP2;P2;SDS_P1;SDS_P2;PMS_P1;PMS_P2;Temp;Humidity;BMP_temperature;BMP_pressure;BME280_temperature;BME280_humidity;BME280_pressure;Samples;Min_cycle;Max_cycle;Signal;HPM_P1;HPM_P2
2022/12/03 05:06:19;;;;;;;14.13;8.00;;;11.50;62.90;;;;;;4937812;24;20048;-74
2022/12/03 05:08:45;;;;;;;15.73;5.70;;;11.80;63.00;;;;;;4775212;30;20063;-74
2022/12/03 05:11:11;;;;;;;13.90;5.82;;;12.10;63.40;;;;;;4789827;30;20067;-74
2022/12/03 05:13:36;;;;;;;12.40;5.70;;;12.30;63.50;;;;;;4791768;30;20146;-74
2022/12/03 05:16:02;;;;;;;10.57;5.07;;;12.50;63.70;;;;;;4791599;30;20066;-74
2022/12/03 05:18:28;;;;;;;16.83;5.00;;;12.70;63.80;;;;;;4791728;30;20138;-76
2022/12/03 05:20:53;;;;;;;8.30;4.70;;;12.80;63.80;;;;;;4791415;29;20051;-80
2022/12/03 05:23:20;;;;;;;17.60;4.95;;;13.00;63.90;;;;;;4791014;30;20051;-74
2022/12/03 05:25:45;;;;;;;15.75;5.65;;;13.10;63.80;;;;;;4791496;30;20051;-76
2022/12/03 05:28:11;;;;;;;7.63;3.92;;;13.30;64.10;;;;;;4791264;30;20054;-77
2022/12/03 05:30:37;;;;;;;9.35;4.38;;;13.40;64.00;;;;;;4775941;30;20051;-77
2022/12/03 05:33:02;;;;;;;8.43;3.83;;;13.50;64.00;;;;;;4791352;29;20130;-76
2022/12/03 05:35:28;;;;;;;11.00;4.90;;;13.60;64.00;;;;;;4790556;30;20101;-75
2022/12/03 05:37:54;;;;;;;8.02;3.70;;;13.70;63.80;;;;;;4790756;30;20051;-75
2022/12/03 05:40:20;;;;;;;11.32;3.72;;;13.80;63.70;;;;;;4791088;30;20082;-75
2022/12/03 05:43:00;;;;;;;10.50;3.88;;;13.80;63.60;;;;;;4789803;30;20066;-75
2022/12/03 05:45:32;;;;;;;9.88;3.60;;;13.90;63.80;;;;;;4773229;30;20060;-76
2022/12/03 05:47:58;;;;;;;10.25;3.45;;;14.00;63.90;;;;;;4772761;30;20116;-80
2022/12/03 05:50:27;;;;;;;8.20;3.17;;;14.00;63.90;;;;;;4756481;30;20345;-77
2022/12/03 05:52:55;;;;;;;9.85;3.78;;;14.20;63.90;;;;;;4773319;30;20134;-78
2022/12/03 05:55:21;;;;;;;11.65;4.03;;;14.30;63.50;;;;;;4772950;30;20097;-80
2022/12/03 05:57:47;;;;;;;10.10;4.10;;;14.30;63.30;;;;;;4772127;30;20098;-78
2022/12/03 06:00:22;;;;;;;9.75;4.03;;;14.40;63.20;;;;;;4772756;30;20051;-78
2022/12/03 06:02:48;;;;;;;11.55;5.03;;;14.50;63.00;;;;;;4773176;30;20429;-74
2022/12/03 06:05:15;;;;;;;9.82;3.85;;;14.50;62.90;;;;;;4773157;30;20083;-78
2022/12/03 06:07:42;;;;;;;12.50;4.65;;;14.60;62.90;;;;;;4756310;30;20452;-77
2022/12/03 06:10:11;;;;;;;11.25;4.75;;;14.50;62.60;;;;;;4757016;30;20380;-78
2022/12/03 06:12:37;;;;;;;13.27;4.45;;;14.50;62.30;;;;;;4772629;30;20047;-76
2022/12/03 06:15:03;;;;;;;13.00;4.35;;;14.60;62.10;;;;;;4772986;30;20132;-78
2022/12/03 06:17:29;;;;;;;17.23;5.95;;;14.60;61.90;;;;;;4757324;30;20056;-76
2022/12/03 06:19:55;;;;;;;12.90;4.80;;;14.70;61.90;;;;;;4772544;30;20059;-77
2022/12/03 06:22:20;;;;;;;13.93;4.88;;;14.70;61.70;;;;;;4779705;30;20105;-77
2022/12/03 06:24:46;;;;;;;11.15;4.40;;;14.70;62.00;;;;;;4784167;30;20132;-77
2022/12/03 06:27:12;;;;;;;9.65;4.50;;;14.70;62.20;;;;;;4786865;30;20061;-82
2022/12/03 06:29:38;;;;;;;19.02;4.70;;;14.70;62.50;;;;;;4789234;29;20475;-75
2022/12/03 06:32:04;;;;;;;22.80;5.63;;;14.80;62.50;;;;;;4787951;29;20130;-76
2022/12/03 06:34:30;;;;;;;13.43;5.63;;;14.60;59.20;;;;;;4781806;29;20055;-75
2022/12/03 06:36:56;;;;;;;13.60;4.35;;;13.90;59.90;;;;;;4780466;30;20062;-74
2022/12/03 06:39:22;;;;;;;13.27;4.78;;;14.20;63.60;;;;;;4780557;30;20043;-75
2022/12/03 06:41:48;;;;;;;12.00;4.80;;;14.40;63.60;;;;;;4781777;30;20388;-77
2022/12/03 06:44:14;;;;;;;13.50;4.38;;;14.60;63.40;;;;;;4764315;30;20052;-78
2022/12/03 06:46:40;;;;;;;14.95;4.80;;;14.70;63.30;;;;;;4780519;29;20112;-77
2022/12/03 06:49:08;;;;;;;12.95;4.10;;;14.70;63.30;;;;;;4781242;29;20443;-76
2022/12/03 06:51:34;;;;;;;11.88;3.72;;;14.70;63.20;;;;;;4779412;29;20055;-76
2022/12/03 06:54:01;;;;;;;12.30;4.30;;;14.80;63.30;;;;;;4780664;30;20043;-79
2022/12/03 06:56:27;;;;;;;10.10;4.10;;;14.80;63.30;;;;;;4781132;30;20518;-75
2022/12/03 06:58:54;;;;;;;14.38;4.90;;;14.70;63.30;;;;;;4764397;30;20083;-75
2022/12/03 07:01:19;;;;;;;12.32;4.22;;;14.60;63.40;;;;;;4781812;29;20047;-74
2022/12/03 07:03:49;;;;;;;11.35;4.45;;;14.60;64.20;;;;;;4779769;30;20104;-71
2022/12/03 07:06:17;;;;;;;13.80;5.28;;;14.60;63.80;;;;;;4781445;30;20139;-70
2022/12/03 07:08:43;;;;;;;12.55;5.20;;;14.60;62.90;;;;;;4779965;29;20138;-72
2022/12/03 07:14:00;;;;;;;12.25;7.10;;;14.50;60.20;;;;;;4781889;30;20106;-69
2022/12/03 07:16:28;;;;;;;13.43;8.05;;;14.40;59.00;;;;;;4781181;30;20055;-74
2022/12/03 07:18:54;;;;;;;12.73;7.43;;;14.30;58.20;;;;;;4787515;29;20059;-74
2022/12/03 07:21:19;;;;;;;12.82;7.72;;;14.20;57.60;;;;;;4789837;29;20055;-75
2022/12/03 07:23:45;;;;;;;13.05;7.97;;;14.10;57.10;;;;;;4789786;30;20164;-75
2022/12/03 07:26:11;;;;;;;17.15;6.80;;;14.00;57.00;;;;;;4789564;29;20062;-74
2022/12/03 07:28:36;;;;;;;17.10;7.25;;;14.10;57.40;;;;;;4789864;29;20047;-77
2022/12/03 07:31:02;;;;;;;13.27;6.30;;;14.20;57.70;;;;;;4788836;29;20087;-72
2022/12/03 07:33:28;;;;;;;14.15;6.15;;;14.30;58.10;;;;;;4781217;30;20051;-77
2022/12/03 07:35:53;;;;;;;15.02;6.20;;;14.50;58.20;;;;;;4778506;30;20044;-79
2022/12/03 07:38:19;;;;;;;9.07;4.75;;;14.50;58.30;;;;;;4778563;30;20153;-84
2022/12/03 07:40:45;;;;;;;14.10;5.53;;;14.60;59.00;;;;;;4756055;30;20055;-82
2022/12/03 07:43:11;;;;;;;11.65;4.90;;;14.70;58.60;;;;;;4769819;30;20044;-84
2022/12/03 07:45:39;;;;;;;9.02;5.03;;;14.80;58.70;;;;;;4785523;29;20375;-82
2022/12/03 07:48:05;;;;;;;13.30;4.60;;;14.80;58.90;;;;;;4755923;30;20440;-80
2022/12/03 07:50:30;;;;;;;19.90;5.30;;;14.90;59.20;;;;;;4771845;29;20043;-79
2022/12/03 07:52:56;;;;;;;13.32;5.43;;;14.80;59.30;;;;;;4773444;29;20055;-83
2022/12/03 07:55:24;;;;;;;14.77;4.93;;;14.80;59.50;;;;;;4783705;29;20054;-82
2022/12/03 07:57:49;;;;;;;12.30;4.95;;;14.70;59.80;;;;;;4781755;30;20043;-82
2022/12/03 08:00:16;;;;;;;9.48;4.28;;;14.70;60.10;;;;;;4788350;29;20128;-80
2022/12/03 08:02:42;;;;;;;8.98;4.32;;;14.60;60.40;;;;;;4786205;29;20054;-79
2022/12/03 08:05:07;;;;;;;9.48;4.28;;;14.60;60.60;;;;;;4788285;29;20352;-79
2022/12/03 08:07:33;;;;;;;8.30;3.75;;;14.60;60.80;;;;;;4789521;29;20059;-81
2022/12/03 08:09:59;;;;;;;7.40;3.60;;;14.60;60.90;;;;;;4779201;29;20356;-77
2022/12/03 08:12:44;;;;;;;9.63;3.67;;;14.60;61.00;;;;;;4801276;29;20409;-76
2022/12/03 08:15:17;;;;;;;9.88;4.40;;;14.70;61.00;;;;;;4788971;30;20043;-79
2022/12/03 08:17:53;;;;;;;21.48;5.97;;;14.70;61.20;;;;;;4789529;30;20422;-76
2022/12/03 08:20:21;;;;;;;9.43;3.45;;;14.00;61.60;;;;;;4773688;30;20052;-70
2022/12/03 08:22:50;;;;;;;9.43;3.97;;;14.30;62.00;;;;;;4789809;30;20051;-80
2022/12/03 08:25:30;;;;;;;14.30;4.00;;;14.60;62.00;;;;;;4789462;29;20519;-78
2022/12/03 08:28:14;;;;;;;7.10;3.30;;;14.70;62.10;;;;;;4791230;29;20057;-79
2022/12/03 08:30:42;;;;;;;11.18;2.85;;;14.90;61.90;;;;;;4804261;29;20047;-78
2022/12/03 08:33:27;;;;;;;12.88;4.03;;;15.00;61.90;;;;;;4783520;29;20059;-78
2022/12/03 08:35:53;;;;;;;11.43;3.78;;;15.10;62.10;;;;;;4792229;29;20066;-79
2022/12/03 08:38:22;;;;;;;15.20;4.47;;;15.20;60.90;;;;;;4792156;29;20063;-77
2022/12/03 08:40:50;;;;;;;8.80;3.30;;;15.20;62.40;;;;;;4792243;30;20071;-73
2022/12/03 08:43:23;;;;;;;8.05;3.08;;;15.10;62.40;;;;;;4792254;29;20047;-74
2022/12/03 08:45:56;;;;;;;11.88;4.05;;;15.10;62.60;;;;;;4792368;29;20066;-80
2022/12/03 08:48:32;;;;;;;11.77;4.80;;;15.10;62.70;;;;;;4791983;29;20051;-81
2022/12/03 08:51:20;;;;;;;14.93;3.90;;;15.00;62.90;;;;;;4776197;30;20051;-82
2022/12/03 08:53:52;;;;;;;18.35;4.70;;;15.00;63.00;;;;;;4791357;29;20078;-72
2022/12/03 08:56:26;;;;;;;24.55;4.32;;;15.00;63.30;;;;;;4775700;30;20135;-80
2022/12/03 08:58:57;;;;;;;24.10;4.60;;;15.00;63.80;;;;;;4776103;30;20047;-80
2022/12/03 09:01:44;;;;;;;8.80;3.40;;;14.90;63.50;;;;;;4800908;29;20047;-79
2022/12/03 09:04:48;;;;;;;10.20;3.22;;;14.80;63.20;;;;;;4792254;30;20098;-77
2022/12/03 09:07:13;;;;;;;13.75;3.67;;;14.80;63.00;;;;;;4771404;30;20056;-79
2022/12/03 09:09:39;;;;;;;11.90;3.58;;;14.70;63.10;;;;;;4771616;30;20130;-78
2022/12/03 09:12:05;;;;;;;12.70;3.92;;;14.60;63.10;;;;;;4781098;29;20382;-79
2022/12/03 09:14:31;;;;;;;13.98;3.83;;;14.60;63.50;;;;;;4787854;30;20341;-77
2022/12/03 09:16:56;;;;;;;8.73;3.67;;;14.50;63.60;;;;;;4775286;30;20059;-79
2022/12/03 09:19:25;;;;;;;12.15;3.65;;;14.50;63.40;;;;;;4772694;30;20048;-78
2022/12/03 09:21:51;;;;;;;7.70;3.70;;;14.50;63.60;;;;;;4757647;30;20126;-69
2022/12/03 09:24:17;;;;;;;9.40;3.25;;;14.40;64.10;;;;;;4773692;30;20048;-71
2022/12/03 09:26:43;;;;;;;10.07;4.15;;;14.40;63.90;;;;;;4777465;30;20120;-71
2022/12/03 09:29:08;;;;;;;10.27;3.95;;;14.40;63.90;;;;;;4791612;30;20065;-71
2022/12/03 09:31:34;;;;;;;10.23;4.40;;;14.30;63.60;;;;;;4791663;30;20060;-71
2022/12/03 09:34:01;;;;;;;11.63;4.40;;;14.30;64.00;;;;;;4791510;30;20044;-71
2022/12/03 09:36:27;;;;;;;11.75;5.57;;;14.20;64.50;;;;;;4790257;30;20063;-72
2022/12/03 09:38:53;;;;;;;15.32;5.65;;;14.20;64.50;;;;;;4791007;29;20058;-70
2022/12/03 09:41:18;;;;;;;14.10;5.47;;;14.20;64.70;;;;;;4791707;29;20119;-71
2022/12/03 09:43:44;;;;;;;10.73;5.47;;;14.10;65.90;;;;;;4791900;29;20360;-74
2022/12/03 09:46:10;;;;;;;17.42;6.25;;;14.10;67.40;;;;;;4791347;30;20051;-73
2022/12/03 09:48:36;;;;;;;18.52;6.03;;;14.10;66.80;;;;;;4789002;30;20201;-68
2022/12/03 09:51:02;;;;;;;13.88;6.38;;;14.10;66.80;;;;;;4773518;30;20096;-68
2022/12/03 09:53:28;;;;;;;16.88;8.18;;;14.20;66.10;;;;;;4772896;30;20479;-72
2022/12/03 09:55:58;;;;;;;15.05;8.38;;;14.20;64.80;;;;;;4773108;30;20061;-72
2022/12/03 09:58:26;;;;;;;15.30;9.43;;;14.10;63.60;;;;;;4773312;30;20051;-74
2022/12/03 10:00:51;;;;;;;21.30;9.27;;;14.10;63.50;;;;;;4773152;30;20484;-72
2022/12/03 10:03:20;;;;;;;16.27;8.07;;;14.10;63.10;;;;;;4788360;29;20047;-71
2022/12/03 10:05:46;;;;;;;14.43;9.98;;;14.10;62.50;;;;;;4791796;29;20364;-71
2022/12/03 10:08:17;;;;;;;14.55;9.70;;;14.10;59.90;;;;;;4809107;29;20111;-72
2022/12/03 10:10:43;;;;;;;12.90;9.15;;;14.00;56.90;;;;;;4792826;29;20082;-75
2022/12/03 10:13:18;;;;;;;14.35;9.18;;;13.90;57.70;;;;;;4809021;29;20072;-78
2022/12/03 10:15:46;;;;;;;14.85;8.40;;;13.80;57.20;;;;;;4808319;29;20417;-76
2022/12/03 10:18:20;;;;;;;12.43;8.20;;;13.80;57.40;;;;;;4792833;29;20100;-76
2022/12/03 10:20:46;;;;;;;13.63;8.13;;;13.90;58.40;;;;;;4808593;29;20430;-74
2022/12/03 10:23:26;;;;;;;14.18;7.32;;;13.90;61.00;;;;;;4808918;29;20122;-77
2022/12/03 10:25:58;;;;;;;14.05;7.72;;;14.20;61.60;;;;;;4808617;29;20046;-75
2022/12/03 10:28:35;;;;;;;13.98;6.28;;;14.40;62.10;;;;;;4792764;29;20062;-76
2022/12/03 10:31:03;;;;;;;21.73;6.78;;;14.50;63.30;;;;;;4795354;29;20121;-76
2022/12/03 10:33:38;;;;;;;16.08;7.40;;;14.70;63.90;;;;;;4789651;30;20075;-76
2022/12/03 10:36:22;;;;;;;16.17;7.68;;;14.70;64.30;;;;;;4791395;29;20066;-75
2022/12/03 10:39:08;;;;;;;13.77;6.85;;;14.80;64.80;;;;;;4784028;30;20097;-80
2022/12/03 10:41:34;;;;;;;20.75;7.07;;;14.90;65.00;;;;;;4781815;29;20100;-76
2022/12/03 10:44:17;;;;;;;12.45;6.32;;;14.90;65.20;;;;;;4783219;29;20047;-75
2022/12/03 10:46:43;;;;;;;13.48;6.55;;;14.90;66.30;;;;;;4788178;30;20047;-76
2022/12/03 10:49:14;;;;;;;18.80;6.88;;;14.90;66.10;;;;;;4788933;29;20111;-79
2022/12/03 10:51:40;;;;;;;18.00;6.65;;;14.90;66.10;;;;;;4773441;30;20371;-80
2022/12/03 10:54:22;;;;;;;16.70;6.15;;;14.90;66.20;;;;;;4759456;30;20063;-79
2022/12/03 10:56:50;;;;;;;20.92;6.90;;;14.90;66.30;;;;;;4774430;30;20471;-76
2022/12/03 10:59:21;;;;;;;18.95;6.40;;;14.60;65.40;;;;;;4790186;30;20411;-80
2022/12/03 11:01:48;;;;;;;24.50;7.13;;;14.70;66.50;;;;;;4790213;30;20051;-79
2022/12/03 11:04:25;;;;;;;27.88;6.90;;;14.70;66.70;;;;;;4790041;30;20090;-79
2022/12/03 11:06:51;;;;;;;25.02;8.30;;;14.70;66.40;;;;;;4790070;30;20138;-80
2022/12/03 11:09:25;;;;;;;27.52;8.27;;;14.60;64.90;;;;;;4784765;29;20142;-79
2022/12/03 11:12:16;;;;;;;23.73;7.85;;;14.60;64.60;;;;;;4773870;29;20051;-80
2022/12/03 11:14:51;;;;;;;33.15;8.60;;;14.50;64.60;;;;;;4790054;29;20134;-77
2022/12/03 11:17:40;;;;;;;22.80;7.55;;;14.50;64.40;;;;;;4791659;29;20054;-79
2022/12/03 11:20:29;;;;;;;29.42;8.23;;;14.50;64.50;;;;;;4787458;29;20051;-79
2022/12/03 11:22:56;;;;;;;21.40;7.50;;;14.40;64.50;;;;;;4765912;30;20067;-79
2022/12/03 11:25:28;;;;;;;23.13;7.40;;;14.40;64.80;;;;;;4780059;29;20058;-77
2022/12/03 11:28:12;;;;;;;24.35;8.13;;;14.20;64.40;;;;;;4789229;29;20143;-77
2022/12/03 11:31:01;;;;;;;21.42;7.20;;;14.10;64.50;;;;;;4779900;30;20047;-80
2022/12/03 11:33:28;;;;;;;23.25;7.85;;;14.00;64.80;;;;;;4788081;29;20067;-80
2022/12/03 11:36:04;;;;;;;22.08;8.18;;;13.90;65.00;;;;;;4793394;29;20071;-79
2022/12/03 11:38:46;;;;;;;20.85;8.52;;;13.80;64.80;;;;;;4763379;30;20440;-82
2022/12/03 11:41:16;;;;;;;16.88;8.02;;;13.80;64.70;;;;;;4774350;30;20122;-81
2022/12/03 11:43:51;;;;;;;17.25;8.15;;;13.80;64.90;;;;;;4781762;30;20131;-78
2022/12/03 11:46:23;;;;;;;21.48;9.27;;;13.70;64.90;;;;;;4787382;30;20055;-77
2022/12/03 11:48:52;;;;;;;21.48;8.65;;;13.70;64.70;;;;;;4784744;30;20047;-79
2022/12/03 11:51:20;;;;;;;18.70;8.48;;;13.70;64.50;;;;;;4781075;30;20055;-81
2022/12/03 11:53:48;;;;;;;17.38;8.43;;;13.70;64.10;;;;;;4764154;30;20052;-79
2022/12/03 11:56:17;;;;;;;15.95;8.55;;;13.60;64.10;;;;;;4778958;30;20491;-81
2022/12/03 11:58:45;;;;;;;11.85;7.38;;;13.50;64.00;;;;;;4749688;30;20455;-78
2022/12/03 12:01:12;;;;;;;18.80;8.73;;;13.40;64.00;;;;;;4789819;29;20039;-82
2022/12/03 12:03:44;;;;;;;15.13;8.00;;;13.40;64.20;;;;;;4770116;30;20440;-79
2022/12/03 12:06:16;;;;;;;14.75;7.72;;;13.30;64.40;;;;;;4784128;29;20129;-80
2022/12/03 12:08:50;;;;;;;17.88;7.57;;;13.30;64.80;;;;;;4791197;30;20061;-79
2022/12/03 12:11:17;;;;;;;35.15;8.27;;;13.20;65.10;;;;;;4792812;29;20146;-80
2022/12/03 12:13:42;;;;;;;19.13;7.68;;;13.30;65.20;;;;;;4791868;29;20379;-79
2022/12/03 12:16:08;;;;;;;12.32;7.97;;;13.30;65.10;;;;;;4776712;30;20134;-80
2022/12/03 12:18:35;;;;;;;12.80;8.00;;;13.30;64.80;;;;;;4793027;29;20035;-78
2022/12/03 12:21:41;;;;;;;12.98;8.57;;;13.30;64.60;;;;;;4792748;29;20086;-81
2022/12/03 12:24:38;;;;;;;11.65;7.72;;;13.30;64.30;;;;;;4792723;30;20051;-77
2022/12/03 12:27:09;;;;;;;14.70;7.90;;;13.30;64.20;;;;;;4792774;29;20092;-80
2022/12/03 12:29:38;;;;;;;18.40;8.32;;;13.30;64.00;;;;;;4795757;29;20478;-79
2022/12/03 12:32:13;;;;;;;13.60;7.97;;;13.30;63.70;;;;;;4794575;29;20059;-81
2022/12/03 12:34:41;;;;;;;15.30;8.70;;;13.40;63.50;;;;;;4810411;29;20088;-80
2022/12/03 12:37:13;;;;;;;14.75;8.95;;;13.40;63.30;;;;;;4794627;29;20470;-80
2022/12/03 12:39:39;;;;;;;15.82;8.02;;;13.40;63.40;;;;;;4810625;29;20363;-81
2022/12/03 12:42:31;;;;;;;15.27;8.35;;;13.40;63.40;;;;;;4809692;29;20051;-82
2022/12/03 12:45:04;;;;;;;15.88;8.65;;;13.40;63.00;;;;;;4810992;29;20051;-79
2022/12/03 12:47:29;;;;;;;16.10;9.00;;;13.40;62.80;;;;;;4806699;29;20549;-81
2022/12/03 12:49:58;;;;;;;14.45;7.57;;;13.30;63.10;;;;;;4780909;29;20696;-81
2022/12/03 12:52:24;;;;;;;13.77;8.68;;;13.30;63.50;;;;;;4790422;30;20044;-79
2022/12/03 12:54:50;;;;;;;14.57;7.50;;;13.20;63.80;;;;;;4789868;29;20477;-80
2022/12/03 12:57:21;;;;;;;13.80;7.47;;;13.20;64.10;;;;;;4781099;30;20047;-80
2022/12/03 12:59:47;;;;;;;11.10;7.65;;;13.20;64.20;;;;;;4774035;30;20047;-81
2022/12/03 13:02:25;;;;;;;12.98;7.88;;;13.20;64.30;;;;;;4773315;30;20055;-82
2022/12/03 13:04:51;;;;;;;15.10;9.00;;;13.20;65.10;;;;;;4774236;30;20151;-81
2022/12/03 13:07:17;;;;;;;11.88;7.63;;;13.20;64.30;;;;;;4772633;30;20398;-79
2022/12/03 13:09:42;;;;;;;14.63;7.78;;;13.20;64.30;;;;;;4772772;30;20047;-81
2022/12/03 13:12:19;;;;;;;12.43;8.38;;;13.10;64.40;;;;;;4780977;29;20071;-82
2022/12/03 13:14:45;;;;;;;9.85;7.20;;;13.10;64.60;;;;;;4795206;29;20053;-79
2022/12/03 13:17:23;;;;;;;10.40;7.78;;;13.10;64.60;;;;;;4777948;29;20055;-79
2022/12/03 13:19:49;;;;;;;11.15;7.25;;;13.10;64.50;;;;;;4791970;29;20155;-79
2022/12/03 13:22:18;;;;;;;13.75;8.15;;;13.10;64.70;;;;;;4777484;30;20051;-80
2022/12/03 13:24:52;;;;;;;16.83;7.20;;;13.00;64.90;;;;;;4806993;29;20140;-80
2022/12/03 13:27:24;;;;;;;;;;;13.00;65.30;;;;;;4794803;29;20134;-82
2022/12/03 13:29:54;;;;;;;12.70;6.88;;;13.00;65.90;;;;;;4798989;29;19929;-81
2022/12/03 13:32:29;;;;;;;15.50;7.30;;;13.00;65.60;;;;;;4802219;29;20046;-78
2022/12/03 13:35:25;;;;;;;10.85;7.15;;;13.00;66.00;;;;;;4807225;29;20043;-79
2022/12/03 13:37:51;;;;;;;13.50;7.03;;;13.10;66.40;;;;;;4796976;29;20532;-80
2022/12/03 13:40:34;;;;;;;12.38;6.72;;;13.00;66.70;;;;;;4795417;29;20105;-69
2022/12/03 13:43:11;;;;;;;17.45;8.95;;;13.00;65.10;;;;;;4783865;30;20376;-73
2022/12/03 13:45:38;;;;;;;15.80;9.45;;;12.90;65.00;;;;;;4782848;30;20360;-71
2022/12/03 13:48:28;;;;;;;20.80;11.00;;;12.80;64.10;;;;;;4781734;30;20044;-71
2022/12/03 13:51:04;;;;;;;27.63;13.20;;;12.80;63.20;;;;;;4785212;30;20055;-71
2022/12/03 13:53:37;;;;;;;20.98;12.30;;;12.90;61.60;;;;;;4777850;29;20136;-70
2022/12/03 13:56:14;;;;;;;24.08;12.40;;;12.90;59.90;;;;;;4772452;30;20404;-70
2022/12/03 13:58:40;;;;;;;19.67;12.68;;;12.90;58.80;;;;;;4773445;30;20055;-71
2022/12/03 14:01:06;;;;;;;27.30;13.05;;;12.90;57.40;;;;;;4778360;29;20380;-74
2022/12/03 14:03:32;;;;;;;23.23;11.82;;;12.90;57.40;;;;;;4808487;29;20055;-72
2022/12/03 14:05:57;;;;;;;26.38;11.95;;;12.90;57.80;;;;;;4808641;29;20055;-73
2022/12/03 14:08:23;;;;;;;36.58;12.07;;;12.90;58.50;;;;;;4808795;29;20419;-73
2022/12/03 14:10:49;;;;;;;32.45;11.25;;;12.90;59.00;;;;;;4809013;29;20065;-72
2022/12/03 14:13:14;;;;;;;27.02;11.50;;;13.00;59.30;;;;;;4809068;29;20115;-75
2022/12/03 14:15:40;;;;;;;23.23;9.70;;;13.20;60.00;;;;;;4807910;29;20087;-79
2022/12/03 14:18:06;;;;;;;21.25;9.48;;;13.40;59.90;;;;;;4809136;29;20050;-74
2022/12/03 14:20:33;;;;;;;25.83;10.05;;;13.60;59.70;;;;;;4808727;29;20067;-75
2022/12/03 14:22:58;;;;;;;25.58;9.23;;;13.80;59.80;;;;;;4808299;29;20079;-74
2022/12/03 14:25:24;;;;;;;21.15;8.75;;;13.90;60.40;;;;;;4791904;29;20051;-76
2022/12/03 14:27:50;;;;;;;24.35;8.32;;;14.00;59.90;;;;;;4790353;30;20058;-76
2022/12/03 14:30:16;;;;;;;21.73;8.43;;;14.10;60.10;;;;;;4791518;29;20055;-74
2022/12/03 14:32:41;;;;;;;20.65;8.38;;;14.20;60.30;;;;;;4770685;30;20087;-77
2022/12/03 14:35:08;;;;;;;19.35;8.40;;;14.30;61.00;;;;;;4774830;29;20047;-76
2022/12/03 14:37:33;;;;;;;24.08;7.68;;;14.30;60.50;;;;;;4808097;29;20055;-75
2022/12/03 14:39:59;;;;;;;27.35;8.52;;;14.30;60.70;;;;;;4807170;29;20043;-77
2022/12/03 14:42:25;;;;;;;20.67;7.70;;;14.40;60.70;;;;;;4807990;29;20077;-77
2022/12/03 14:44:51;;;;;;;20.65;7.40;;;14.50;60.90;;;;;;4808495;29;20131;-75
2022/12/03 14:47:21;;;;;;;23.17;6.38;;;14.60;60.80;;;;;;4807773;29;20562;-75
2022/12/03 14:49:47;;;;;;;27.40;7.13;;;14.70;60.80;;;;;;4808181;29;20051;-76
2022/12/03 14:52:13;;;;;;;34.30;8.00;;;14.80;60.70;;;;;;4808469;29;20066;-77
2022/12/03 14:54:43;;;;;;;21.45;6.90;;;15.00;60.60;;;;;;4807937;29;20467;-75
2022/12/03 14:57:11;;;;;;;21.00;6.65;;;15.00;60.80;;;;;;4808158;29;20463;-75
2022/12/03 14:59:38;;;;;;;24.92;6.07;;;15.10;60.90;;;;;;4807578;29;20097;-81
2022/12/03 15:02:03;;;;;;;27.27;7.50;;;15.20;60.90;;;;;;4794813;29;20112;-77
2022/12/03 15:04:29;;;;;;;19.92;5.90;;;15.20;60.90;;;;;;4787356;29;20059;-76
2022/12/03 15:06:55;;;;;;;19.58;6.07;;;15.30;61.00;;;;;;4789285;30;20475;-76
2022/12/03 15:09:21;;;;;;;21.70;6.28;;;15.30;60.90;;;;;;4789424;29;20523;-76
2022/12/03 15:11:46;;;;;;;21.95;6.38;;;15.30;61.00;;;;;;4789763;30;20139;-74
2022/12/03 15:14:12;;;;;;;22.90;6.57;;;15.20;61.10;;;;;;4790197;30;20063;-76
2022/12/03 15:16:38;;;;;;;28.58;6.90;;;15.20;60.10;;;;;;4789216;30;20051;-77
2022/12/03 15:19:04;;;;;;;23.48;6.97;;;15.00;60.60;;;;;;4758818;30;20051;-75
2022/12/03 15:21:31;;;;;;;20.90;6.88;;;15.20;61.50;;;;;;4789794;30;20047;-75
2022/12/03 15:23:58;;;;;;;22.17;6.55;;;15.30;61.50;;;;;;4789832;29;20052;-75
2022/12/03 15:26:24;;;;;;;21.35;6.10;;;15.30;61.40;;;;;;4789943;30;20477;-76
2022/12/03 15:28:50;;;;;;;15.40;6.00;;;15.30;61.40;;;;;;4791078;29;20113;-79
2022/12/03 15:31:15;;;;;;;22.15;5.50;;;15.40;61.60;;;;;;4791889;29;20054;-75
2022/12/03 15:33:41;;;;;;;22.13;5.35;;;15.40;61.60;;;;;;4807878;29;20134;-76
2022/12/03 15:36:07;;;;;;;14.52;4.78;;;15.50;61.80;;;;;;4809434;29;20057;-75
2022/12/03 15:38:33;;;;;;;20.15;4.90;;;15.50;61.80;;;;;;4811695;29;20046;-74
2022/12/03 15:41:19;;;;;;;18.10;4.50;;;15.60;61.80;;;;;;4811337;29;20125;-74
2022/12/03 15:43:44;;;;;;;18.50;4.90;;;15.60;61.90;;;;;;4809429;29;20374;-74
2022/12/03 15:46:10;;;;;;;18.17;4.88;;;15.60;62.10;;;;;;4783528;30;20059;-75
2022/12/03 15:48:35;;;;;;;21.88;4.45;;;15.60;62.30;;;;;;4793186;30;20095;-75
2022/12/03 15:51:01;;;;;;;18.63;5.93;;;15.60;62.60;;;;;;4792401;30;20055;-74
2022/12/03 15:53:26;;;;;;;16.48;5.15;;;15.70;62.70;;;;;;4793170;30;20063;-74
2022/12/03 15:55:52;;;;;;;9.57;4.32;;;15.70;62.70;;;;;;4793152;30;20065;-75
2022/12/03 15:58:18;;;;;;;12.95;4.82;;;15.70;62.80;;;;;;4793136;30;20046;-75
2022/12/03 16:00:43;;;;;;;14.85;4.43;;;15.70;62.90;;;;;;4793351;29;20138;-74
2022/12/03 16:03:09;;;;;;;9.52;4.65;;;15.60;63.20;;;;;;4792926;30;20332;-74
2022/12/03 16:05:35;;;;;;;8.50;4.45;;;15.60;63.40;;;;;;4793126;30;20086;-75
2022/12/03 16:08:00;;;;;;;8.82;4.90;;;15.60;63.50;;;;;;4792969;29;20055;-74
2022/12/03 16:10:26;;;;;;;10.18;3.80;;;15.60;63.60;;;;;;4797571;29;20101;-76
2022/12/03 16:12:52;;;;;;;13.65;4.32;;;15.60;63.70;;;;;;4792593;29;20047;-74
2022/12/03 16:15:17;;;;;;;10.50;4.35;;;15.60;64.00;;;;;;4792514;29;20113;-75
2022/12/03 16:17:43;;;;;;;15.20;4.10;;;15.50;64.20;;;;;;4792860;30;20047;-73
2022/12/03 16:20:10;;;;;;;22.40;4.97;;;15.40;64.30;;;;;;4793276;29;20047;-73
2022/12/03 16:22:36;;;;;;;13.98;4.47;;;15.40;64.50;;;;;;4792880;30;20463;-73
2022/12/03 16:25:03;;;;;;;12.20;4.35;;;15.40;64.80;;;;;;4792386;29;20054;-72
2022/12/03 16:27:29;;;;;;;10.50;4.32;;;15.30;65.00;;;;;;4792648;30;20044;-74
2022/12/03 16:29:55;;;;;;;11.25;4.50;;;15.30;65.20;;;;;;4792557;30;20177;-71
2022/12/03 16:32:21;;;;;;;12.23;4.03;;;15.20;65.10;;;;;;4792595;29;20116;-77
2022/12/03 16:34:47;;;;;;;8.93;4.50;;;15.20;64.50;;;;;;4792673;30;20055;-74
2022/12/03 16:37:13;;;;;;;11.35;4.35;;;15.10;65.20;;;;;;4776726;30;20062;-76
2022/12/03 16:39:39;;;;;;;7.43;3.97;;;15.10;65.10;;;;;;4798142;29;20058;-76
2022/12/03 16:42:05;;;;;;;13.18;4.53;;;15.00;65.10;;;;;;4810988;29;20055;-76
2022/12/03 16:44:42;;;;;;;11.77;4.15;;;14.90;65.00;;;;;;4810302;29;20054;-76
2022/12/03 16:47:08;;;;;;;11.90;4.35;;;14.90;64.90;;;;;;4809534;29;20050;-78
2022/12/03 16:49:33;;;;;;;13.32;4.70;;;14.80;64.70;;;;;;4809974;29;20416;-75
2022/12/03 16:51:59;;;;;;;9.30;4.53;;;14.80;64.70;;;;;;4810065;29;20134;-73
2022/12/03 16:54:25;;;;;;;8.60;4.25;;;14.80;64.90;;;;;;4810766;29;20051;-73
2022/12/03 16:56:50;;;;;;;11.27;4.60;;;14.70;64.80;;;;;;4810575;29;20439;-75
2022/12/03 16:59:16;;;;;;;11.68;5.75;;;14.70;64.80;;;;;;4809804;29;20054;-73
2022/12/03 17:01:42;;;;;;;10.77;4.85;;;14.70;65.00;;;;;;4809689;29;20047;-73
2022/12/03 17:04:07;;;;;;;10.35;4.93;;;14.60;65.00;;;;;;4809992;29;20379;-73
2022/12/03 17:06:33;;;;;;;15.57;4.82;;;14.60;65.00;;;;;;4809424;29;20070;-76
2022/12/03 17:08:59;;;;;;;11.13;4.57;;;14.60;65.30;;;;;;4806265;29;20051;-74
2022/12/03 17:11:25;;;;;;;12.68;5.68;;;14.50;65.40;;;;;;4790512;30;20068;-73
2022/12/03 17:13:50;;;;;;;9.23;5.28;;;14.50;65.10;;;;;;4791475;29;20050;-73
2022/12/03 17:16:16;;;;;;;9.05;5.40;;;14.50;64.90;;;;;;4791715;30;20055;-74
2022/12/03 17:18:42;;;;;;;10.30;4.07;;;14.40;64.70;;;;;;4791898;30;20072;-73
2022/12/03 17:21:07;;;;;;;13.60;5.18;;;14.40;64.60;;;;;;4791804;30;20047;-73
2022/12/03 17:23:33;;;;;;;9.07;5.85;;;14.40;64.60;;;;;;4791703;30;20367;-73
2022/12/03 17:25:59;;;;;;;12.98;4.97;;;14.30;64.60;;;;;;4791626;30;20067;-73
2022/12/03 17:28:24;;;;;;;10.88;5.45;;;14.30;64.50;;;;;;4791507;30;20058;-74
2022/12/03 17:30:50;;;;;;;9.15;5.10;;;14.30;64.50;;;;;;4791077;29;20130;-71
2022/12/03 17:33:16;;;;;;;11.90;5.32;;;14.20;64.40;;;;;;4792436;29;20371;-73
2022/12/03 17:35:45;;;;;;;12.65;5.22;;;14.30;64.80;;;;;;4801332;29;20375;-80
2022/12/03 17:38:11;;;;;;;10.35;5.22;;;14.20;65.00;;;;;;4791296;29;20051;-76
2022/12/03 17:40:36;;;;;;;9.52;4.97;;;14.20;65.00;;;;;;4791264;29;20104;-74
2022/12/03 17:43:02;;;;;;;11.63;6.13;;;14.20;65.20;;;;;;4791740;29;20102;-75
2022/12/03 17:45:28;;;;;;;15.35;6.45;;;14.20;65.20;;;;;;4792672;29;20047;-75
2022/12/03 17:47:53;;;;;;;17.15;5.97;;;14.20;65.40;;;;;;4804487;29;20043;-76
2022/12/03 17:50:19;;;;;;;10.68;6.40;;;14.20;65.70;;;;;;4809460;29;20463;-77
2022/12/03 17:52:45;;;;;;;17.70;5.93;;;14.20;65.90;;;;;;4808837;29;20451;-75
2022/12/03 17:55:11;;;;;;;10.73;5.85;;;14.20;65.90;;;;;;4808973;29;20138;-74